Time;durP1;ratioP1;P1;durP2;ratioP2;P2;SDS_P1;SDS_P2;PMS_P1;PMS_P2;Temp;Humidity;BMP_temperature;BMP_pressure;BME280_temperature;BME280_humidity;BME280_pressure;Samples;Min_cycle;Max_cycle;Signal;HPM_P1;HPM_P2
2021/12/01 05:15:35;;;;;;;;;;;;;;;3.81;85.73;96634.91;4226396;27;10286;-72
2021/12/01 05:17:36;;;;;;;;;;;;;;;3.88;84.61;96628.09;4215354;28;5819;-71
2021/12/01 05:19:38;;;;;;;;;;;;;;;3.95;83.30;96634.31;4214800;28;5767;-71
2021/12/01 05:21:40;;;;;;;;;;;;;;;3.95;83.15;96633.50;4213684;28;5710;-71
2021/12/01 05:23:42;;;;;;;;;;;;;;;3.96;83.26;96629.91;4213248;28;5685;-72
2021/12/01 05:25:46;;;;;;;;;;;;;;;3.92;83.43;96621.56;4215092;28;5696;-72
2021/12/01 05:27:47;;;;;;;;;;;;;;;4.00;83.22;96626.00;4214628;28;5797;-71
2021/12/01 05:29:49;;;;;;;;;;;;;;;3.99;82.56;96627.00;4214838;28;5700;-72
2021/12/01 05:31:53;;;;;;;;;;;;;;;3.96;82.69;96615.03;4192212;28;5800;-72
2021/12/01 05:33:55;;;;;;;;;;;;;;;3.96;82.80;96616.81;4212099;28;5689;-72
2021/12/01 05:35:57;;;;;;;;;;;;;;;3.99;82.61;96614.72;4215101;28;6592;-72
2021/12/01 05:38:00;;;;;;;;;;;;;;;4.01;82.82;96610.16;4197941;28;5797;-71
2021/12/01 05:40:03;;;;;;;;;;;;;;;4.03;82.66;96600.34;4216143;28;5765;-72
2021/12/01 05:42:04;;;;;;;;;;;;;;;4.03;83.07;96602.97;4212772;28;5696;-72
2021/12/01 05:44:06;;;;;;;;;;;;;;;4.07;82.94;96599.06;4215210;28;5729;-72
2021/12/01 05:46:08;;;;;;;;;;;;;;;4.12;83.40;96592.53;4214572;28;5821;-72
2021/12/01 05:48:10;;;;;;;;;;;;;;;3.87;84.86;96597.69;4198143;28;5789;-72
2021/12/01 05:50:12;;;;;;;;;;;;;;;3.93;84.27;96599.66;4215890;28;5765;-71
2021/12/01 05:52:16;;;;;;;;;;;;;;;4.07;83.99;96599.06;4210219;28;5701;-71
2021/12/01 05:54:18;;;;;;;;;;;;;;;3.98;84.04;96602.63;4212925;28;5701;-71
2021/12/01 05:56:20;;;;;;;;;;;;;;;4.15;83.29;96598.28;4213882;28;5701;-71
2021/12/01 05:58:24;;;;;;;;;;;;;;;4.27;82.72;96599.63;4191417;28;5889;-71
2021/12/01 06:00:26;;;;;;;;;;;;;;;3.98;84.39;96586.94;4193120;28;5755;-71
2021/12/01 06:02:28;;;;;;;;;;;;;;;4.16;83.42;96591.25;4205849;28;5689;-72
2021/12/01 06:04:30;;;;;;;;;;;;;;;4.30;82.92;96585.41;4198633;28;5722;-71
2021/12/01 06:06:32;;;;;;;;;;;;;;;4.36;82.40;96585.59;4213642;28;5761;-72
2021/12/01 06:08:35;;;;;;;;;;;;;;;4.41;82.71;96587.72;4210709;28;6344;-72
2021/12/01 06:10:40;;;;;;;;;;;;;;;4.43;82.65;96570.09;4210157;28;6397;-72
2021/12/01 06:12:44;;;;;;;;;;;;;;;4.33;83.02;96564.97;4204441;28;5747;-72
2021/12/01 06:14:46;;;;;;;;;;;;;;;4.23;83.16;96559.06;4208783;28;5927;-72
2021/12/01 06:16:48;;;;;;;;;;;;;;;4.27;83.45;96559.56;4202232;28;5694;-71
2021/12/01 06:18:50;;;;;;;;;;;;;;;4.29;83.52;96562.81;4183369;28;5711;-72
2021/12/01 06:20:51;;;;;;;;;;;;;;;4.37;83.14;96570.72;4202614;28;5864;-72
2021/12/01 06:22:53;;;;;;;;;;;;;;;4.42;82.83;96576.28;4202191;28;5889;-71
2021/12/01 06:24:55;;;;;;;;;;;;;;;4.34;83.06;96563.19;4202913;28;7242;-72
2021/12/01 06:26:57;;;;;;;;;;;;;;;4.28;83.17;96561.19;4196452;28;5678;-72
2021/12/01 06:28:58;;;;;;;;;;;;;;;4.20;83.74;96559.38;4194169;28;5710;-71
2021/12/01 06:31:00;;;;;;;;;;;;;;;4.03;83.85;96555.88;4188639;28;5899;-72
2021/12/01 06:33:03;;;;;;;;;;;;;;;3.97;84.09;96559.16;4203665;22;5877;-71
2021/12/01 06:35:06;;;;;;;;;;;;;;;4.00;84.06;96552.78;4193899;28;5692;-72
2021/12/01 06:37:08;;;;;;;;;;;;;;;4.06;83.78;96552.94;4195897;28;5635;-71
2021/12/01 06:39:11;;;;;;;;;;;;;;;4.26;83.22;96552.69;4200189;22;6031;-72
2021/12/01 06:41:12;;;;;;;;;;;;;;;4.34;82.59;96550.09;4200233;28;5698;-72
2021/12/01 06:43:14;;;;;;;;;;;;;;;4.37;82.56;96547.16;4190424;28;5723;-72
2021/12/01 06:45:16;;;;;;;;;;;;;;;4.35;82.60;96551.72;4187020;28;5844;-72
2021/12/01 06:47:18;;;;;;;;;;;;;;;4.16;83.59;96562.47;4186354;28;5646;-72
2021/12/01 06:49:20;;;;;;;;;;;;;;;4.17;83.41;96553.63;4186926;28;5774;-72
2021/12/01 06:51:21;;;;;;;;;;;;;;;4.17;82.94;96545.78;4187497;28;5711;-72
2021/12/01 06:53:23;;;;;;;;;;;;;;;3.97;84.81;96553.91;4169457;28;5660;-72
2021/12/01 06:55:25;;;;;;;;;;;;;;;4.02;84.39;96549.00;4185981;28;5650;-71
2021/12/01 06:57:27;;;;;;;;;;;;;;;4.07;84.24;96544.13;4185668;28;5558;-72
2021/12/01 06:59:29;;;;;;;;;;;;;;;4.13;83.83;96536.63;4186811;28;7481;-73
2021/12/01 07:01:30;;;;;;;;;;;;;;;4.12;83.66;96535.81;4187470;28;5711;-73
2021/12/01 07:03:34;;;;;;;;;;;;;;;4.27;82.95;96533.38;4169418;28;5673;-72
2021/12/01 07:05:36;;;;;;;;;;;;;;;4.23;82.69;96532.06;4187038;28;6375;-73
2021/12/01 07:07:38;;;;;;;;;;;;;;;4.17;82.78;96520.44;4185334;28;5647;-73
2021/12/01 07:09:41;;;;;;;;;;;;;;;4.29;82.26;96510.50;4186016;28;5754;-72
2021/12/01 07:11:42;;;;;;;;;;;;;;;4.25;82.31;96514.41;4186031;28;5683;-72
2021/12/01 07:13:44;;;;;;;;;;;;;;;4.38;82.22;96499.06;4185679;28;5666;-72
2021/12/01 07:15:46;;;;;;;;;;;;;;;4.48;81.78;96497.13;4186842;28;5724;-73
2021/12/01 07:17:48;;;;;;;;;;;;;;;4.46;81.65;96501.69;4185838;28;5646;-73
2021/12/01 07:19:49;;;;;;;;;;;;;;;4.48;81.71;96504.97;4185506;28;5826;-73
2021/12/01 07:21:51;;;;;;;;;;;;;;;4.50;81.67;96503.00;4185233;28;5658;-73
2021/12/01 07:23:52;;;;;;;;;;;;;;;4.46;81.89;96501.69;4186670;28;5707;-73
2021/12/01 07:25:54;;;;;;;;;;;;;;;4.50;82.08;96500.38;4186958;28;5703;-73
2021/12/01 07:27:56;;;;;;;;;;;;;;;4.53;81.82;96494.84;4185563;28;5789;-72
2021/12/01 07:29:57;;;;;;;;;;;;;;;4.56;82.27;96484.03;4186580;28;5715;-72
2021/12/01 07:31:59;;;;;;;;;;;;;;;4.67;81.86;96473.25;4186586;28;5922;-72
2021/12/01 07:34:01;;;;;;;;;;;;;;;4.48;82.99;96473.56;4186580;28;5704;-72
2021/12/01 07:36:04;;;;;;;;;;;;;;;4.54;82.85;96470.28;4186647;28;5695;-72
2021/12/01 07:38:06;;;;;;;;;;;;;;;4.47;84.13;96465.88;4185425;28;5653;-72
2021/12/01 07:40:08;;;;;;;;;;;;;;;4.60;82.99;96467.00;4185109;28;5646;-72
2021/12/01 07:42:11;;;;;;;;;;;;;;;4.61;83.12;96462.59;4186511;28;5815;-72
2021/12/01 07:44:13;;;;;;;;;;;;;;;4.61;82.86;96458.16;4168715;28;5777;-72
2021/12/01 07:46:15;;;;;;;;;;;;;;;4.60;82.57;96451.31;4185667;28;6319;-72
2021/12/01 07:48:17;;;;;;;;;;;;;;;4.72;82.29;96450.97;4186389;28;5715;-71
2021/12/01 07:50:19;;;;;;;;;;;;;;;4.54;82.86;96453.78;4186203;28;5737;-72
2021/12/01 07:52:20;;;;;;;;;;;;;;;4.64;82.25;96441.31;4185255;28;5650;-72
2021/12/01 07:54:22;;;;;;;;;;;;;;;4.68;82.26;96429.53;4184755;28;5666;-72
2021/12/01 07:56:24;;;;;;;;;;;;;;;4.58;81.81;96415.81;4184968;28;5651;-72
2021/12/01 07:58:25;;;;;;;;;;;;;;;4.68;81.59;96414.66;4184780;28;6376;-72
2021/12/01 08:00:27;;;;;;;;;;;;;;;4.75;81.10;96425.25;4185214;28;5810;-72
2021/12/01 08:02:29;;;;;;;;;;;;;;;4.72;81.20;96416.94;4184691;28;5747;-72
2021/12/01 08:04:31;;;;;;;;;;;;;;;4.75;80.46;96416.59;4184779;28;5671;-72
2021/12/01 08:06:33;;;;;;;;;;;;;;;4.75;80.87;96419.19;4185992;28;5755;-72
2021/12/01 08:08:34;;;;;;;;;;;;;;;4.67;80.99;96425.28;4186139;28;5712;-72
2021/12/01 08:10:36;;;;;;;;;;;;;;;4.66;81.28;96411.38;4185991;28;5735;-72
2021/12/01 08:12:38;;;;;;;;;;;;;;;4.77;81.13;96404.16;4185931;28;5736;-72
2021/12/01 08:14:40;;;;;;;;;;;;;;;4.84;80.41;96402.50;4185635;28;6323;-72
2021/12/01 08:16:41;;;;;;;;;;;;;;;4.87;80.68;96404.78;4184797;28;5642;-72
2021/12/01 08:18:43;;;;;;;;;;;;;;;4.82;80.25;96396.63;4186175;28;5731;-72
2021/12/01 08:20:48;;;;;;;;;;;;;;;4.82;79.84;96394.81;4184518;28;5650;-72
2021/12/01 08:22:50;;;;;;;;;;;;;;;4.80;80.18;96404.66;4185729;28;5723;-72
2021/12/01 08:24:54;;;;;;;;;;;;;;;4.76;80.14;96405.97;4186231;28;5708;-72
2021/12/01 08:26:55;;;;;;;;;;;;;;;4.72;80.46;96403.84;4185688;28;5703;-72
2021/12/01 08:28:57;;;;;;;;;;;;;;;4.72;80.37;96396.78;4184916;28;5639;-72
2021/12/01 08:30:59;;;;;;;;;;;;;;;4.53;81.61;96395.38;4185696;28;5707;-72
2021/12/01 08:33:01;;;;;;;;;;;;;;;4.71;80.79;96389.09;4184304;28;5638;-72
2021/12/01 08:35:03;;;;;;;;;;;;;;;4.61;80.37;96379.63;4184080;28;5691;-71
2021/12/01 08:37:08;;;;;;;;;;;;;;;4.77;80.34;96375.38;4184419;28;5642;-72
2021/12/01 08:39:10;;;;;;;;;;;;;;;4.80;80.13;96377.63;4185038;28;5973;-72
2021/12/01 08:41:12;;;;;;;;;;;;;;;4.82;80.27;96367.81;4185583;28;5719;-72
2021/12/01 08:43:13;;;;;;;;;;;;;;;4.88;79.89;96362.72;4185582;28;5816;-72
2021/12/01 08:45:17;;;;;;;;;;;;;;;4.88;79.79;96364.53;4185388;28;5768;-72
2021/12/01 08:47:21;;;;;;;;;;;;;;;4.87;79.97;96368.94;4185747;28;7646;-72
2021/12/01 08:49:24;;;;;;;;;;;;;;;4.91;79.78;96375.47;4167933;28;5781;-72
2021/12/01 08:51:27;;;;;;;;;;;;;;;4.71;80.46;96368.97;4167864;28;5689;-72
2021/12/01 08:53:30;;;;;;;;;;;;;;;4.91;80.17;96369.44;4185635;28;5730;-72
2021/12/01 08:55:32;;;;;;;;;;;;;;;5.00;79.19;96357.13;4184456;28;5661;-72
2021/12/01 08:57:42;;;;;;;;;;;;;;;4.88;80.27;96354.06;4184189;28;5670;-72
2021/12/01 08:59:45;;;;;;;;;;;;;;;4.86;79.37;96351.56;4185445;28;5719;-72
2021/12/01 09:01:46;;;;;;;;;;;;;;;4.92;80.00;96356.16;4185318;28;5736;-72
2021/12/01 09:03:48;;;;;;;;;;;;;;;5.08;79.49;96338.75;4185226;28;5716;-71
2021/12/01 09:05:50;;;;;;;;;;;;;;;5.12;78.47;96329.56;4189583;28;5754;-71
2021/12/01 09:07:52;;;;;;;;;;;;;;;5.24;78.29;96329.03;4199937;28;6385;-72
2021/12/01 09:09:54;;;;;;;;;;;;;;;5.25;77.76;96329.84;4186187;28;5901;-72
2021/12/01 09:11:55;;;;;;;;;;;;;;;5.32;77.67;96335.19;4181714;28;5726;-72
2021/12/01 09:13:57;;;;;;;;;;;;;;;5.33;77.40;96329.81;4182218;28;6370;-71
2021/12/01 09:15:59;;;;;;;;;;;;;;;5.42;77.48;96327.94;4185599;28;5662;-67
2021/12/01 09:18:01;;;;;;;;;;;;;;;5.40;77.04;96333.34;4172173;28;5671;-67
2021/12/01 09:20:04;;;;;;;;;;;;;;;5.45;76.45;96325.00;4167330;28;5657;-67
2021/12/01 09:22:05;;;;;;;;;;;;;;;5.45;77.18;96319.75;4180688;28;5719;-67
2021/12/01 09:24:07;;;;;;;;;;;;;;;5.45;76.88;96314.50;4184161;28;5639;-67
2021/12/01 09:26:09;;;;;;;;;;;;;;;5.45;76.79;96304.84;4185089;28;5839;-67
2021/12/01 09:28:14;;;;;;;;;;;;;;;5.32;77.40;96298.50;4183927;28;5762;-67
2021/12/01 09:30:17;;;;;;;;;;;;;;;5.34;77.30;96293.94;4167312;28;5653;-67
2021/12/01 09:32:18;;;;;;;;;;;;;;;5.34;76.97;96286.06;4183836;28;5770;-67
2021/12/01 09:34:20;;;;;;;;;;;;;;;5.23;77.57;96288.06;4171039;28;5721;-67
2021/12/01 09:36:21;;;;;;;;;;;;;;;5.41;77.03;96292.22;4168581;28;5729;-67
2021/12/01 09:38:23;;;;;;;;;;;;;;;5.36;76.81;96286.69;4168870;28;5728;-67
2021/12/01 09:40:25;;;;;;;;;;;;;;;5.42;77.23;96284.19;4167132;28;5666;-67
2021/12/01 09:42:27;;;;;;;;;;;;;;;5.36;76.64;96274.41;4168694;28;5892;-67
2021/12/01 09:44:30;;;;;;;;;;;;;;;5.36;76.91;96276.22;4167290;28;6270;-67
2021/12/01 09:46:32;;;;;;;;;;;;;;;5.42;76.91;96270.25;4150878;28;5888;-67
2021/12/01 09:48:35;;;;;;;;;;;;;;;5.42;76.59;96262.41;4167309;28;5661;-67
2021/12/01 09:50:45;;;;;;;;;;;;;;;5.39;75.97;96268.00;4168684;28;5674;-67
2021/12/01 09:52:47;;;;;;;;;;;;;;;5.54;76.04;96264.44;4177183;28;5816;-67
2021/12/01 09:54:50;;;;;;;;;;;;;;;5.47;74.76;96255.66;4187262;28;5646;-67
2021/12/01 09:56:51;;;;;;;;;;;;;;;5.53;75.08;96251.50;4187839;28;5755;-66
2021/12/01 09:58:54;;;;;;;;;;;;;;;5.50;75.47;96244.00;4187140;28;5133;-67
2021/12/01 10:01:02;;;;;;;;;;;;;;;5.59;76.05;96227.22;4186876;28;5751;-67
2021/12/01 10:03:05;;;;;;;;;;;;;;;5.51;76.90;96222.03;4188321;28;5707;-67
2021/12/01 10:05:07;;;;;;;;;;;;;;;5.69;76.69;96216.50;4186595;28;6303;-66
2021/12/01 10:07:22;;;;;;;;;;;;;;;5.67;76.88;96198.31;4185278;28;5813;-66
2021/12/01 10:09:24;;;;;;;;;;;;;;;5.61;76.68;96182.47;4181038;28;5630;-67
2021/12/01 10:11:32;;;;;;;;;;;;;;;5.58;76.67;96183.63;4176479;28;5818;-66
2021/12/01 10:13:39;;;;;;;;;;;;;;;5.66;77.26;96183.53;4187482;28;5742;-66
2021/12/01 10:15:40;;;;;;;;;;;;;;;5.64;77.07;96169.00;4171006;28;5171;-66
2021/12/01 10:17:42;;;;;;;;;;;;;;;5.76;77.01;96164.94;4170004;28;5673;-66
2021/12/01 10:19:44;;;;;;;;;;;;;;;5.73;77.15;96155.63;4153661;28;5712;-67
2021/12/01 10:21:49;;;;;;;;;;;;;;;5.85;77.50;96156.00;4171394;28;5745;-65
2021/12/01 10:23:54;;;;;;;;;;;;;;;5.83;78.53;96150.13;4190152;28;5735;-66
2021/12/01 10:25:56;;;;;;;;;;;;;;;5.65;78.58;96147.84;4178427;28;5762;-66
2021/12/01 10:27:58;;;;;;;;;;;;;;;5.77;78.80;96151.66;4176203;28;5828;-66
2021/12/01 10:30:00;;;;;;;;;;;;;;;5.94;77.65;96141.03;4180862;28;5823;-67
2021/12/01 10:32:22;;;;;;;;;;;;;;;6.07;76.98;96130.72;4172708;28;5832;-67
2021/12/01 10:34:32;;;;;;;;;;;;;;;5.96;77.45;96123.31;4161695;28;5920;-70
2021/12/01 10:36:34;;;;;;;;;;;;;;;6.14;77.07;96108.03;4184407;28;5662;-69
2021/12/01 10:38:38;;;;;;;;;;;;;;;6.08;75.86;96100.88;4156457;28;5777;-69
2021/12/01 10:40:40;;;;;;;;;;;;;;;5.97;76.13;96098.69;4184548;28;5720;-71
2021/12/01 10:42:53;;;;;;;;;;;;;;;6.02;76.07;96102.41;4190771;28;5102;-69
2021/12/01 10:44:56;;;;;;;;;;;;;;;5.99;76.63;96101.94;4183983;28;5824;-70
2021/12/01 10:47:06;;;;;;;;;;;;;;;5.90;75.59;96103.88;4183649;28;5657;-70
2021/12/01 10:49:08;;;;;;;;;;;;;;;5.80;76.60;96109.34;4186908;28;5891;-69
2021/12/01 10:51:31;;;;;;;;;;;;;;;5.95;76.37;96106.75;4184260;28;5735;-71
2021/12/01 10:53:32;;;;;;;;;;;;;;;5.94;76.32;96115.63;4190643;28;5730;-72
2021/12/01 10:55:41;;;;;;;;;;;;;;;5.90;76.33;96118.75;4186533;28;5829;-69
2021/12/01 10:57:49;;;;;;;;;;;;;;;5.89;76.15;96115.31;4184761;28;5862;-69
2021/12/01 10:59:52;;;;;;;;;;;;;;;5.69;77.41;96116.84;4186341;28;5777;-72
2021/12/01 11:02:09;;;;;;;;;;;;;;;5.84;76.86;96110.59;4195553;28;6233;-71
2021/12/01 11:04:11;;;;;;;;;;;;;;;5.93;76.79;96116.63;4182466;28;5771;-71
2021/12/01 11:06:22;;;;;;;;;;;;;;;5.95;77.22;96105.94;4186417;28;5678;-71
2021/12/01 11:08:31;;;;;;;;;;;;;;;5.92;77.77;96114.19;4188262;28;5739;-70
2021/12/01 11:10:33;;;;;;;;;;;;;;;5.90;77.91;96100.41;4177839;28;5859;-71
2021/12/01 11:12:34;;;;;;;;;;;;;;;5.83;78.52;96093.25;4186360;28;5798;-69
2021/12/01 11:14:52;;;;;;;;;;;;;;;5.85;78.82;96086.00;4184637;28;5110;-69
2021/12/01 11:16:54;;;;;;;;;;;;;;;5.95;80.27;96084.94;4187079;28;7731;-68
2021/12/01 11:18:58;;;;;;;;;;;;;;;5.83;81.71;96082.75;4183032;28;5655;-67
2021/12/01 11:21:22;;;;;;;;;;;;;;;5.73;80.94;96070.91;4185043;28;5820;-71
2021/12/01 11:23:30;;;;;;;;;;;;;;;5.84;79.73;96066.00;4179087;28;5716;-69
2021/12/01 11:25:35;;;;;;;;;;;;;;;5.81;80.28;96063.75;4190811;28;5563;-71
2021/12/01 11:27:37;;;;;;;;;;;;;;;5.83;79.89;96051.28;4184551;28;5727;-71
2021/12/01 11:29:39;;;;;;;;;;;;;;;5.79;80.29;96060.50;4186535;28;5711;-69
2021/12/01 11:31:44;;;;;;;;;;;;;;;5.72;80.06;96043.84;4185752;28;5735;-68
2021/12/01 11:33:48;;;;;;;;;;;;;;;5.80;80.48;96032.47;4186406;28;5723;-68
2021/12/01 11:36:01;;;;;;;;;;;;;;;5.94;80.19;96025.59;4188876;28;5746;-68
2021/12/01 11:38:10;;;;;;;;;;;;;;;5.88;80.88;96006.13;4199385;28;6388;-68
2021/12/01 11:40:12;;;;;;;;;;;;;;;5.97;79.87;96005.06;4175643;28;5678;-69
2021/12/01 11:42:14;;;;;;;;;;;;;;;6.06;79.57;95990.03;4202781;28;5784;-68
2021/12/01 11:44:17;;;;;;;;;;;;;;;6.00;80.53;95999.47;4200749;28;5955;-68
2021/12/01 11:46:19;;;;;;;;;;;;;;;5.85;81.58;95990.75;4196414;28;6387;-68
2021/12/01 11:48:33;;;;;;;;;;;;;;;5.71;81.95;95992.41;4184879;28;5705;-67
2021/12/01 11:50:44;;;;;;;;;;;;;;;5.98;80.81;95984.88;4197723;28;5694;-68
2021/12/01 11:53:14;;;;;;;;;;;;;;;6.05;80.67;95975.28;4201345;28;5077;-68
2021/12/01 11:55:15;;;;;;;;;;;;;;;6.09;80.62;95968.66;4200866;28;5686;-70
2021/12/01 11:57:20;;;;;;;;;;;;;;;6.06;80.61;95969.03;4202199;28;6402;-69
2021/12/01 11:59:27;;;;;;;;;;;;;;;6.04;80.06;95960.53;4196961;28;5903;-67
2021/12/01 12:01:37;;;;;;;;;;;;;;;5.96;80.33;95950.97;4186518;28;5925;-68
2021/12/01 12:03:38;;;;;;;;;;;;;;;5.95;80.99;95938.03;4191969;28;5804;-71
2021/12/01 12:05:40;;;;;;;;;;;;;;;5.88;81.63;95935.28;4178475;28;5778;-72
2021/12/01 12:07:44;;;;;;;;;;;;;;;5.90;81.67;95929.88;4164767;28;5694;-72
2021/12/01 12:10:11;;;;;;;;;;;;;;;5.90;81.43;95933.34;4184805;28;5844;-72
2021/12/01 12:12:20;;;;;;;;;;;;;;;5.74;82.78;95925.66;4185626;28;5817;-70
2021/12/01 12:14:23;;;;;;;;;;;;;;;5.81;82.05;95937.84;4183895;28;5895;-71
2021/12/01 12:16:24;;;;;;;;;;;;;;;5.85;81.95;95923.38;4168137;28;5649;-73
2021/12/01 12:18:35;;;;;;;;;;;;;;;5.71;82.98;95926.84;4185769;28;6431;-73
2021/12/01 12:20:52;;;;;;;;;;;;;;;5.81;82.48;95921.31;4185497;28;5832;-71
2021/12/01 12:22:55;;;;;;;;;;;;;;;5.88;82.76;95916.13;4167673;28;5676;-73
2021/12/01 12:24:57;;;;;;;;;;;;;;;5.93;82.48;95913.81;4189044;28;5786;-72
2021/12/01 12:27:02;;;;;;;;;;;;;;;5.96;83.10;95897.69;4187885;28;5843;-73
2021/12/01 12:29:12;;;;;;;;;;;;;;;5.90;83.30;95906.28;4184900;28;5727;-73
2021/12/01 12:31:20;;;;;;;;;;;;;;;5.90;83.07;95893.16;4184171;28;5646;-71
2021/12/01 12:33:22;;;;;;;;;;;;;;;5.90;83.13;95883.50;4184095;28;5794;-72
2021/12/01 12:35:41;;;;;;;;;;;;;;;5.82;84.10;95881.78;4183995;28;5658;-72
2021/12/01 12:37:44;;;;;;;;;;;;;;;5.97;83.59;95870.44;4184046;28;5670;-71
2021/12/01 12:39:46;;;;;;;;;;;;;;;6.03;83.26;95870.53;4185194;28;5731;-72
2021/12/01 12:41:54;;;;;;;;;;;;;;;6.02;83.08;95868.09;4185338;28;5720;-71
2021/12/01 12:44:26;;;;;;;;;;;;;;;6.03;83.22;95856.59;4185055;28;5814;-71
2021/12/01 12:46:32;;;;;;;;;;;;;;;5.99;83.43;95855.31;4185049;28;5708;-72
2021/12/01 12:48:42;;;;;;;;;;;;;;;5.92;83.51;95846.59;4184101;28;5840;-74
2021/12/01 12:51:22;;;;;;;;;;;;;;;5.93;83.44;95848.22;4183841;28;5762;-72
2021/12/01 12:53:24;;;;;;;;;;;;;;;5.98;83.33;95835.34;4185410;28;5075;-71
2021/12/01 12:55:25;;;;;;;;;;;;;;;5.90;84.84;95835.44;4182137;28;7693;-71
2021/12/01 12:57:49;;;;;;;;;;;;;;;5.94;84.31;95826.22;4183383;28;5662;-73
2021/12/01 13:00:25;;;;;;;;;;;;;;;5.92;85.12;95828.25;4166293;28;5654;-73
2021/12/01 13:02:30;;;;;;;;;;;;;;;5.98;84.25;95817.78;4186792;28;5687;-72
2021/12/01 13:05:02;;;;;;;;;;;;;;;6.03;83.88;95812.00;4183599;28;5778;-70
2021/12/01 13:07:29;;;;;;;;;;;;;;;5.94;85.49;95820.97;4183678;28;5624;-74
2021/12/01 13:09:32;;;;;;;;;;;;;;;5.96;85.34;95814.53;4177840;28;5650;-75
2021/12/01 13:11:34;;;;;;;;;;;;;;;5.99;85.38;95813.34;4150670;28;5668;-73
2021/12/01 13:13:53;;;;;;;;;;;;;;;5.94;85.31;95810.50;4165898;28;5666;-72
2021/12/01 13:15:54;;;;;;;;;;;;;;;5.95;85.75;95806.88;4183785;28;5658;-71
2021/12/01 13:17:59;;;;;;;;;;;;;;;5.72;87.69;95807.84;4184973;28;5707;-70
2021/12/01 13:20:01;;;;;;;;;;;;;;;5.92;86.40;95808.06;4183824;28;5716;-75
2021/12/01 13:22:11;;;;;;;;;;;;;;;6.00;86.12;95801.84;4192354;28;5582;-74
2021/12/01 13:24:29;;;;;;;;;;;;;;;5.97;86.34;95800.41;4169758;28;5754;-72
2021/12/01 13:26:40;;;;;;;;;;;;;;;6.01;86.35;95803.50;4185186;28;5703;-75
2021/12/01 13:29:18;;;;;;;;;;;;;;;6.02;87.33;95797.25;4186987;28;5749;-76
2021/12/01 13:31:46;;;;;;;;;;;;;;;6.02;88.08;95797.25;4185990;28;5860;-75
2021/12/01 13:34:09;;;;;;;;;;;;;;;6.10;86.94;95807.59;4185640;28;5654;-71
2021/12/01 13:36:16;;;;;;;;;;;;;;;5.93;87.80;95798.38;4202123;28;5706;-71
2021/12/01 13:38:35;;;;;;;;;;;;;;;5.93;87.77;95801.81;4173802;28;5772;-72
2021/12/01 13:40:38;;;;;;;;;;;;;;;5.96;87.75;95804.06;4192470;28;5742;-72
2021/12/01 13:42:40;;;;;;;;;;;;;;;5.88;88.76;95801.50;4185920;28;5993;-72
2021/12/01 13:44:44;;;;;;;;;;;;;;;5.83;88.41;95809.16;4186972;28;5715;-73
2021/12/01 13:46:47;;;;;;;;;;;;;;;5.70;89.32;95815.06;4185852;28;6461;-71
2021/12/01 13:48:55;;;;;;;;;;;;;;;5.62;91.12;95801.28;4176825;28;5650;-71
2021/12/01 13:51:15;;;;;;;;;;;;;;;5.66;91.13;95807.75;4192560;28;5795;-72
2021/12/01 13:53:17;;;;;;;;;;;;;;;5.73;90.41;95798.16;4189373;28;5758;-72
2021/12/01 13:55:30;;;;;;;;;;;;;;;5.67;91.92;95799.72;4198632;28;5702;-69
2021/12/01 13:57:33;;;;;;;;;;;;;;;5.77;91.36;95804.63;4189568;28;5725;-71
2021/12/01 14:00:01;;;;;;;;;;;;;;;5.75;92.34;95811.88;4186151;28;5749;-73
2021/12/01 14:02:03;;;;;;;;;;;;;;;5.82;91.34;95810.16;4194362;28;5867;-73
2021/12/01 14:04:07;;;;;;;;;;;;;;;5.85;91.08;95807.94;4170917;28;5785;-70
2021/12/01 14:06:11;;;;;;;;;;;;;;;5.72;91.47;95817.50;4197106;28;5739;-70
2021/12/01 14:08:18;;;;;;;;;;;;;;;5.75;92.12;95817.13;4184851;28;5632;-70
2021/12/01 14:10:23;;;;;;;;;;;;;;;5.62;91.48;95809.13;4185441;28;5658;-72
2021/12/01 14:12:55;;;;;;;;;;;;;;;5.71;91.69;95815.88;4187550;28;5878;-72
2021/12/01 14:14:57;;;;;;;;;;;;;;;5.65;92.26;95806.94;4165482;28;5757;-72
2021/12/01 14:17:02;;;;;;;;;;;;;;;5.74;91.45;95811.06;4188650;28;5761;-72
2021/12/01 14:19:05;;;;;;;;;;;;;;;5.65;92.35;95811.38;4198270;28;5659;-72
2021/12/01 14:21:14;;;;;;;;;;;;;;;5.45;94.55;95800.69;4177742;28;5812;-72
2021/12/01 14:23:16;;;;;;;;;;;;;;;5.59;93.89;95807.69;4169293;28;6349;-72
2021/12/01 14:25:20;;;;;;;;;;;;;;;5.60;94.06;95804.06;4199053;28;5812;-71
2021/12/01 14:27:29;;;;;;;;;;;;;;;5.72;92.96;95797.34;4189749;28;5771;-71
2021/12/01 14:29:33;;;;;;;;;;;;;;;5.71;92.43;95794.91;4190969;28;5754;-71
2021/12/01 14:31:35;;;;;;;;;;;;;;;5.57;93.56;95793.97;4192123;28;5643;-72
2021/12/01 14:33:37;;;;;;;;;;;;;;;5.60;93.48;95788.34;4185637;28;5755;-71
2021/12/01 14:35:40;;;;;;;;;;;;;;;5.65;93.14;95790.41;4194478;28;5699;-72
2021/12/01 14:37:42;;;;;;;;;;;;;;;5.65;93.39;95772.84;4185650;28;5840;-73
2021/12/01 14:39:44;;;;;;;;;;;;;;;5.58;93.30;95774.63;4169563;28;5669;-71
2021/12/01 14:41:49;;;;;;;;;;;;;;;5.71;93.21;95773.94;4189805;28;5658;-72
2021/12/01 14:43:59;;;;;;;;;;;;;;;5.80;92.68;95767.56;4182071;28;5914;-71
2021/12/01 14:46:13;;;;;;;;;;;;;;;5.80;92.28;95759.69;4182930;28;5728;-71
2021/12/01 14:48:15;;;;;;;;;;;;;;;5.67;93.28;95770.88;4185602;28;6078;-69
2021/12/01 14:50:22;;;;;;;;;;;;;;;5.72;94.45;95760.63;4198493;28;5937;-70
2021/12/01 14:52:28;;;;;;;;;;;;;;;5.69;95.54;95760.19;4167625;28;5673;-69
2021/12/01 14:54:35;;;;;;;;;;;;;;;5.76;94.91;95755.81;4185069;28;5723;-72
2021/12/01 14:56:37;;;;;;;;;;;;;;;5.90;93.81;95754.13;4180230;28;5740;-73
2021/12/01 14:58:50;;;;;;;;;;;;;;;5.92;92.93;95741.66;4184667;28;5647;-72
2021/12/01 15:00:57;;;;;;;;;;;;;;;5.90;93.51;95749.72;4186809;28;5837;-71
2021/12/01 15:03:12;;;;;;;;;;;;;;;5.91;93.55;95747.91;4185470;28;5807;-70
2021/12/01 15:05:19;;;;;;;;;;;;;;;5.85;93.52;95744.19;4176182;28;5819;-71
2021/12/01 15:07:20;;;;;;;;;;;;;;;5.87;93.02;95736.13;4181425;28;5804;-73
2021/12/01 15:09:37;;;;;;;;;;;;;;;5.83;92.79;95749.63;4180163;28;5852;-72
2021/12/01 15:11:42;;;;;;;;;;;;;;;5.81;93.05;95754.25;4175881;28;5907;-72
2021/12/01 15:13:46;;;;;;;;;;;;;;;5.85;92.92;95738.94;4166166;28;5123;-72
2021/12/01 15:15:52;;;;;;;;;;;;;;;5.88;92.47;95743.81;4180969;28;5873;-71
2021/12/01 15:18:03;;;;;;;;;;;;;;;5.84;92.43;95747.81;4186157;28;5830;-68
2021/12/01 15:20:09;;;;;;;;;;;;;;;5.76;92.93;95748.75;4196107;28;5797;-67
2021/12/01 15:22:11;;;;;;;;;;;;;;;5.68;93.02;95754.16;4183492;28;5858;-68
2021/12/01 15:24:16;;;;;;;;;;;;;;;5.56;92.78;95750.41;4178018;28;6633;-69
2021/12/01 15:26:25;;;;;;;;;;;;;;;5.54;92.96;95757.63;4190100;28;5822;-68
2021/12/01 15:28:26;;;;;;;;;;;;;;;5.43;93.13;95743.19;4185181;28;5834;-68
2021/12/01 15:30:30;;;;;;;;;;;;;;;5.52;93.27;95746.50;4183343;28;5822;-68
2021/12/01 15:32:32;;;;;;;;;;;;;;;5.57;92.55;95743.34;4199765;28;6537;-69
2021/12/01 15:34:35;;;;;;;;;;;;;;;5.50;93.02;95745.91;4183233;28;5921;-67
2021/12/01 15:36:36;;;;;;;;;;;;;;;5.56;92.48;95750.41;4186211;28;5757;-69
2021/12/01 15:38:38;;;;;;;;;;;;;;;5.57;92.56;95749.41;4190717;28;5813;-69
2021/12/01 15:40:40;;;;;;;;;;;;;;;5.53;92.44;95746.31;4184367;28;5775;-67
2021/12/01 15:42:42;;;;;;;;;;;;;;;5.55;92.65;95754.03;4191382;28;5841;-68
2021/12/01 15:44:44;;;;;;;;;;;;;;;5.55;92.50;95754.03;4191633;28;5806;-69
2021/12/01 15:46:45;;;;;;;;;;;;;;;5.52;92.27;95754.38;4184571;28;5926;-70
2021/12/01 15:48:47;;;;;;;;;;;;;;;5.46;92.87;95757.75;4185328;28;5754;-68
2021/12/01 15:50:49;;;;;;;;;;;;;;;5.47;93.09;95762.00;4200532;28;5805;-67
2021/12/01 15:52:53;;;;;;;;;;;;;;;5.47;92.55;95752.31;4183630;28;5765;-69
2021/12/01 15:54:55;;;;;;;;;;;;;;;5.44;92.63;95750.09;4185310;28;5926;-68
2021/12/01 15:56:57;;;;;;;;;;;;;;;5.44;92.42;95762.38;4192221;28;5750;-70
2021/12/01 15:58:59;;;;;;;;;;;;;;;5.45;92.99;95753.53;4162273;28;5855;-69
2021/12/01 16:01:03;;;;;;;;;;;;;;;5.47;92.64;95762.00;4181995;28;5945;-70
2021/12/01 16:03:06;;;;;;;;;;;;;;;5.38;94.07;95763.13;4177920;28;5829;-70
2021/12/01 16:05:08;;;;;;;;;;;;;;;5.39;93.33;95775.22;4199533;28;6132;-69
2021/12/01 16:07:10;;;;;;;;;;;;;;;5.43;93.26;95771.22;4183423;28;6010;-69
2021/12/01 16:09:15;;;;;;;;;;;;;;;5.37;93.60;95769.34;4168807;28;5839;-69
2021/12/01 16:11:17;;;;;;;;;;;;;;;5.39;93.99;95773.41;4167447;28;5780;-69
2021/12/01 16:13:20;;;;;;;;;;;;;;;5.42;93.64;95775.66;4167130;28;5765;-68
2021/12/01 16:15:22;;;;;;;;;;;;;;;5.46;94.07;95761.19;4166137;28;5880;-68
2021/12/01 16:17:24;;;;;;;;;;;;;;;5.48;94.26;95763.63;4185357;28;5851;-69
2021/12/01 16:19:28;;;;;;;;;;;;;;;5.44;94.50;95771.06;4176795;28;5852;-68
2021/12/01 16:21:30;;;;;;;;;;;;;;;5.37;95.77;95772.78;4180698;28;6407;-69
2021/12/01 16:23:34;;;;;;;;;;;;;;;5.45;95.09;95783.16;4199785;28;5731;-69